sensor_id;sensor_type;location;lat;lon;timestamp;P1;durP1;ratioP1;P2;durP2;ratioP2
75939;SDS011;75809;44.872;20.642;2024-01-30T00:02:23;63.25;;;31.73;;
75939;SDS011;75809;44.872;20.642;2024-01-30T00:04:49;63.30;;;31.58;;
75939;SDS011;75809;44.872;20.642;2024-01-30T00:07:14;66.35;;;33.25;;
75939;SDS011;75809;44.872;20.642;2024-01-30T00:09:40;63.42;;;28.70;;
75939;SDS011;75809;44.872;20.642;2024-01-30T00:12:05;58.45;;;27.67;;
75939;SDS011;75809;44.872;20.642;2024-01-30T00:14:31;69.10;;;32.05;;
75939;SDS011;75809;44.872;20.642;2024-01-30T00:16:57;65.32;;;35.33;;
75939;SDS011;75809;44.872;20.642;2024-01-30T00:19:22;62.75;;;31.95;;
75939;SDS011;75809;44.872;20.642;2024-01-30T00:21:48;66.18;;;30.92;;
75939;SDS011;75809;44.872;20.642;2024-01-30T00:24:13;72.38;;;34.08;;
75939;SDS011;75809;44.872;20.642;2024-01-30T00:26:39;77.90;;;37.85;;
75939;SDS011;75809;44.872;20.642;2024-01-30T00:29:04;72.88;;;33.78;;
75939;SDS011;75809;44.872;20.642;2024-01-30T00:31:30;78.97;;;33.13;;
75939;SDS011;75809;44.872;20.642;2024-01-30T00:33:55;87.00;;;37.53;;
75939;SDS011;75809;44.872;20.642;2024-01-30T00:36:21;70.30;;;32.22;;
75939;SDS011;75809;44.872;20.642;2024-01-30T00:38:46;69.40;;;34.63;;
75939;SDS011;75809;44.872;20.642;2024-01-30T00:41:12;73.65;;;35.47;;
75939;SDS011;75809;44.872;20.642;2024-01-30T00:43:38;68.50;;;33.67;;
75939;SDS011;75809;44.872;20.642;2024-01-30T00:46:03;62.13;;;32.38;;
75939;SDS011;75809;44.872;20.642;2024-01-30T00:48:29;76.68;;;34.00;;
75939;SDS011;75809;44.872;20.642;2024-01-30T00:50:54;66.28;;;32.63;;
75939;SDS011;75809;44.872;20.642;2024-01-30T00:53:20;67.60;;;34.40;;
75939;SDS011;75809;44.872;20.642;2024-01-30T00:55:46;63.75;;;28.35;;
75939;SDS011;75809;44.872;20.642;2024-01-30T00:58:11;63.47;;;30.48;;
75939;SDS011;75809;44.872;20.642;2024-01-30T01:00:37;69.18;;;31.15;;
75939;SDS011;75809;44.872;20.642;2024-01-30T01:03:02;58.35;;;28.27;;
75939;SDS011;75809;44.872;20.642;2024-01-30T01:05:28;55.28;;;27.58;;
75939;SDS011;75809;44.872;20.642;2024-01-30T01:07:54;59.58;;;31.15;;
75939;SDS011;75809;44.872;20.642;2024-01-30T01:10:19;71.70;;;33.65;;
75939;SDS011;75809;44.872;20.642;2024-01-30T01:12:45;61.58;;;28.73;;
75939;SDS011;75809;44.872;20.642;2024-01-30T01:15:11;63.92;;;29.98;;
75939;SDS011;75809;44.872;20.642;2024-01-30T01:17:37;60.47;;;30.98;;
75939;SDS011;75809;44.872;20.642;2024-01-30T01:20:03;55.92;;;27.55;;
75939;SDS011;75809;44.872;20.642;2024-01-30T01:22:33;61.00;;;28.92;;
75939;SDS011;75809;44.872;20.642;2024-01-30T01:24:59;56.58;;;25.60;;
75939;SDS011;75809;44.872;20.642;2024-01-30T01:27:25;52.22;;;26.25;;
75939;SDS011;75809;44.872;20.642;2024-01-30T01:29:51;58.92;;;27.45;;
75939;SDS011;75809;44.872;20.642;2024-01-30T01:32:17;63.30;;;29.77;;
75939;SDS011;75809;44.872;20.642;2024-01-30T01:34:42;62.75;;;25.58;;
75939;SDS011;75809;44.872;20.642;2024-01-30T01:37:07;56.95;;;25.73;;
75939;SDS011;75809;44.872;20.642;2024-01-30T01:39:33;55.40;;;28.33;;
75939;SDS011;75809;44.872;20.642;2024-01-30T01:41:59;59.75;;;27.88;;
75939;SDS011;75809;44.872;20.642;2024-01-30T01:44:24;50.63;;;22.90;;
75939;SDS011;75809;44.872;20.642;2024-01-30T01:46:50;44.70;;;21.40;;
75939;SDS011;75809;44.872;20.642;2024-01-30T01:49:17;46.13;;;20.30;;
75939;SDS011;75809;44.872;20.642;2024-01-30T01:51:44;42.78;;;21.58;;
75939;SDS011;75809;44.872;20.642;2024-01-30T01:54:12;39.63;;;20.70;;
75939;SDS011;75809;44.872;20.642;2024-01-30T01:56:39;38.80;;;20.35;;
75939;SDS011;75809;44.872;20.642;2024-01-30T01:59:05;45.38;;;21.40;;
75939;SDS011;75809;44.872;20.642;2024-01-30T02:01:37;40.47;;;20.23;;
75939;SDS011;75809;44.872;20.642;2024-01-30T02:04:04;42.17;;;21.55;;
75939;SDS011;75809;44.872;20.642;2024-01-30T02:06:30;41.15;;;19.77;;
75939;SDS011;75809;44.872;20.642;2024-01-30T02:08:57;40.03;;;21.90;;
75939;SDS011;75809;44.872;20.642;2024-01-30T02:11:22;43.78;;;22.35;;
75939;SDS011;75809;44.872;20.642;2024-01-30T02:13:49;42.58;;;20.38;;
75939;SDS011;75809;44.872;20.642;2024-01-30T02:16:15;40.83;;;20.35;;
75939;SDS011;75809;44.872;20.642;2024-01-30T02:18:42;40.92;;;19.27;;
75939;SDS011;75809;44.872;20.642;2024-01-30T02:21:10;43.88;;;21.27;;
75939;SDS011;75809;44.872;20.642;2024-01-30T02:23:36;37.30;;;20.48;;
75939;SDS011;75809;44.872;20.642;2024-01-30T02:26:02;40.83;;;19.55;;
75939;SDS011;75809;44.872;20.642;2024-01-30T02:28:28;37.58;;;18.58;;
75939;SDS011;75809;44.872;20.642;2024-01-30T02:30:53;42.72;;;19.23;;
75939;SDS011;75809;44.872;20.642;2024-01-30T02:33:19;39.25;;;19.13;;
75939;SDS011;75809;44.872;20.642;2024-01-30T02:35:46;45.10;;;22.02;;
75939;SDS011;75809;44.872;20.642;2024-01-30T02:38:12;39.53;;;21.40;;
75939;SDS011;75809;44.872;20.642;2024-01-30T02:40:38;41.38;;;20.52;;
75939;SDS011;75809;44.872;20.642;2024-01-30T02:43:03;41.03;;;19.80;;
75939;SDS011;75809;44.872;20.642;2024-01-30T02:45:30;37.75;;;19.13;;
75939;SDS011;75809;44.872;20.642;2024-01-30T02:47:55;43.03;;;20.83;;
75939;SDS011;75809;44.872;20.642;2024-01-30T02:50:21;40.47;;;21.55;;
75939;SDS011;75809;44.872;20.642;2024-01-30T02:52:46;42.80;;;22.60;;
75939;SDS011;75809;44.872;20.642;2024-01-30T02:55:12;45.38;;;22.17;;
75939;SDS011;75809;44.872;20.642;2024-01-30T02:57:38;40.47;;;20.60;;
75939;SDS011;75809;44.872;20.642;2024-01-30T03:00:04;40.33;;;18.13;;
75939;SDS011;75809;44.872;20.642;2024-01-30T03:02:31;41.17;;;21.48;;
75939;SDS011;75809;44.872;20.642;2024-01-30T03:04:57;42.33;;;20.98;;
75939;SDS011;75809;44.872;20.642;2024-01-30T03:07:23;41.55;;;19.55;;
75939;SDS011;75809;44.872;20.642;2024-01-30T03:09:48;41.05;;;20.25;;
75939;SDS011;75809;44.872;20.642;2024-01-30T03:12:14;47.95;;;22.55;;
75939;SDS011;75809;44.872;20.642;2024-01-30T03:14:39;43.35;;;19.35;;
75939;SDS011;75809;44.872;20.642;2024-01-30T03:17:05;42.22;;;18.95;;
75939;SDS011;75809;44.872;20.642;2024-01-30T03:19:30;41.83;;;21.00;;
75939;SDS011;75809;44.872;20.642;2024-01-30T03:21:56;42.30;;;19.95;;
75939;SDS011;75809;44.872;20.642;2024-01-30T03:24:21;40.65;;;20.05;;
75939;SDS011;75809;44.872;20.642;2024-01-30T03:26:47;45.72;;;22.20;;
75939;SDS011;75809;44.872;20.642;2024-01-30T03:29:12;44.75;;;20.35;;
75939;SDS011;75809;44.872;20.642;2024-01-30T03:31:38;43.33;;;23.77;;
75939;SDS011;75809;44.872;20.642;2024-01-30T03:34:04;42.13;;;21.13;;
75939;SDS011;75809;44.872;20.642;2024-01-30T03:36:29;41.17;;;20.67;;
75939;SDS011;75809;44.872;20.642;2024-01-30T03:38:58;44.45;;;22.75;;
75939;SDS011;75809;44.872;20.642;2024-01-30T03:41:23;47.95;;;23.88;;
75939;SDS011;75809;44.872;20.642;2024-01-30T03:43:49;42.17;;;21.60;;
75939;SDS011;75809;44.872;20.642;2024-01-30T03:46:14;49.78;;;22.40;;
75939;SDS011;75809;44.872;20.642;2024-01-30T03:48:39;38.67;;;20.38;;
75939;SDS011;75809;44.872;20.642;2024-01-30T03:51:05;49.40;;;23.20;;
75939;SDS011;75809;44.872;20.642;2024-01-30T03:53:30;44.90;;;22.00;;
75939;SDS011;75809;44.872;20.642;2024-01-30T03:55:56;46.13;;;21.42;;
75939;SDS011;75809;44.872;20.642;2024-01-30T03:58:22;46.53;;;21.25;;
75939;SDS011;75809;44.872;20.642;2024-01-30T04:00:47;47.35;;;23.80;;
75939;SDS011;75809;44.872;20.642;2024-01-30T04:03:16;51.60;;;23.45;;
75939;SDS011;75809;44.872;20.642;2024-01-30T04:05:41;44.70;;;24.65;;
75939;SDS011;75809;44.872;20.642;2024-01-30T04:08:07;49.20;;;25.05;;
75939;SDS011;75809;44.872;20.642;2024-01-30T04:10:33;50.70;;;26.08;;
75939;SDS011;75809;44.872;20.642;2024-01-30T04:12:59;47.60;;;26.20;;
75939;SDS011;75809;44.872;20.642;2024-01-30T04:15:25;53.22;;;26.55;;
75939;SDS011;75809;44.872;20.642;2024-01-30T04:17:50;46.80;;;24.05;;
75939;SDS011;75809;44.872;20.642;2024-01-30T04:20:16;47.97;;;26.08;;
75939;SDS011;75809;44.872;20.642;2024-01-30T04:22:45;46.50;;;24.85;;
75939;SDS011;75809;44.872;20.642;2024-01-30T04:25:13;55.13;;;25.92;;
75939;SDS011;75809;44.872;20.642;2024-01-30T04:27:39;51.20;;;27.23;;
75939;SDS011;75809;44.872;20.642;2024-01-30T04:30:05;58.53;;;27.38;;
75939;SDS011;75809;44.872;20.642;2024-01-30T04:32:31;62.15;;;31.55;;
75939;SDS011;75809;44.872;20.642;2024-01-30T04:34:57;57.13;;;27.67;;
75939;SDS011;75809;44.872;20.642;2024-01-30T04:37:23;57.30;;;27.98;;
75939;SDS011;75809;44.872;20.642;2024-01-30T04:39:48;58.20;;;27.05;;
75939;SDS011;75809;44.872;20.642;2024-01-30T04:42:14;61.67;;;30.10;;
75939;SDS011;75809;44.872;20.642;2024-01-30T04:44:39;56.92;;;28.70;;
75939;SDS011;75809;44.872;20.642;2024-01-30T04:47:05;61.38;;;32.42;;
75939;SDS011;75809;44.872;20.642;2024-01-30T04:49:33;60.78;;;31.10;;
75939;SDS011;75809;44.872;20.642;2024-01-30T04:51:58;62.88;;;32.30;;
75939;SDS011;75809;44.872;20.642;2024-01-30T04:54:24;57.70;;;28.20;;
75939;SDS011;75809;44.872;20.642;2024-01-30T04:56:49;60.53;;;30.48;;
75939;SDS011;75809;44.872;20.642;2024-01-30T04:59:15;64.03;;;31.55;;
75939;SDS011;75809;44.872;20.642;2024-01-30T05:01:40;58.60;;;32.53;;
75939;SDS011;75809;44.872;20.642;2024-01-30T05:04:09;58.45;;;31.63;;
75939;SDS011;75809;44.872;20.642;2024-01-30T05:06:34;57.50;;;29.27;;
75939;SDS011;75809;44.872;20.642;2024-01-30T05:09:00;59.58;;;31.35;;
75939;SDS011;75809;44.872;20.642;2024-01-30T05:11:26;63.45;;;30.30;;
75939;SDS011;75809;44.872;20.642;2024-01-30T05:13:51;67.70;;;34.50;;
75939;SDS011;75809;44.872;20.642;2024-01-30T05:16:16;60.28;;;29.23;;
75939;SDS011;75809;44.872;20.642;2024-01-30T05:18:43;59.47;;;29.70;;
75939;SDS011;75809;44.872;20.642;2024-01-30T05:21:08;65.28;;;32.25;;
75939;SDS011;75809;44.872;20.642;2024-01-30T05:23:35;66.30;;;33.55;;
75939;SDS011;75809;44.872;20.642;2024-01-30T05:26:00;64.25;;;35.40;;
75939;SDS011;75809;44.872;20.642;2024-01-30T05:28:26;63.38;;;33.45;;
75939;SDS011;75809;44.872;20.642;2024-01-30T05:30:51;64.70;;;32.88;;
75939;SDS011;75809;44.872;20.642;2024-01-30T05:33:17;69.43;;;34.50;;
75939;SDS011;75809;44.872;20.642;2024-01-30T05:35:42;59.40;;;29.30;;
75939;SDS011;75809;44.872;20.642;2024-01-30T05:38:08;68.28;;;31.83;;
75939;SDS011;75809;44.872;20.642;2024-01-30T05:40:33;75.85;;;36.38;;
75939;SDS011;75809;44.872;20.642;2024-01-30T05:42:59;75.97;;;37.55;;
75939;SDS011;75809;44.872;20.642;2024-01-30T05:45:26;66.15;;;34.78;;
75939;SDS011;75809;44.872;20.642;2024-01-30T05:47:52;62.80;;;31.05;;
75939;SDS011;75809;44.872;20.642;2024-01-30T05:50:18;65.45;;;34.35;;
75939;SDS011;75809;44.872;20.642;2024-01-30T05:52:44;68.82;;;36.10;;
75939;SDS011;75809;44.872;20.642;2024-01-30T05:55:09;76.57;;;38.05;;
75939;SDS011;75809;44.872;20.642;2024-01-30T05:57:36;66.20;;;32.13;;
75939;SDS011;75809;44.872;20.642;2024-01-30T06:00:02;71.72;;;35.03;;
75939;SDS011;75809;44.872;20.642;2024-01-30T06:02:29;64.40;;;29.13;;
75939;SDS011;75809;44.872;20.642;2024-01-30T06:04:54;69.00;;;35.75;;
75939;SDS011;75809;44.872;20.642;2024-01-30T06:07:19;77.22;;;36.72;;
75939;SDS011;75809;44.872;20.642;2024-01-30T06:09:45;73.72;;;39.55;;
75939;SDS011;75809;44.872;20.642;2024-01-30T06:12:11;68.05;;;37.20;;
75939;SDS011;75809;44.872;20.642;2024-01-30T06:14:37;72.32;;;33.58;;
75939;SDS011;75809;44.872;20.642;2024-01-30T06:17:03;85.53;;;37.45;;
75939;SDS011;75809;44.872;20.642;2024-01-30T06:19:28;67.85;;;34.42;;
75939;SDS011;75809;44.872;20.642;2024-01-30T06:21:54;75.22;;;36.88;;
75939;SDS011;75809;44.872;20.642;2024-01-30T06:24:19;78.97;;;38.80;;
75939;SDS011;75809;44.872;20.642;2024-01-30T06:26:44;83.80;;;42.70;;
75939;SDS011;75809;44.872;20.642;2024-01-30T06:29:10;80.18;;;39.20;;
75939;SDS011;75809;44.872;20.642;2024-01-30T06:31:40;94.40;;;47.20;;
75939;SDS011;75809;44.872;20.642;2024-01-30T06:34:06;98.45;;;47.47;;
75939;SDS011;75809;44.872;20.642;2024-01-30T06:36:32;104.32;;;48.42;;
75939;SDS011;75809;44.872;20.642;2024-01-30T06:38:58;108.10;;;53.40;;
75939;SDS011;75809;44.872;20.642;2024-01-30T06:41:23;99.88;;;49.97;;
75939;SDS011;75809;44.872;20.642;2024-01-30T06:43:49;82.07;;;39.58;;
75939;SDS011;75809;44.872;20.642;2024-01-30T06:46:15;83.07;;;41.65;;
75939;SDS011;75809;44.872;20.642;2024-01-30T06:48:40;78.13;;;36.85;;
75939;SDS011;75809;44.872;20.642;2024-01-30T06:51:06;71.82;;;36.95;;
75939;SDS011;75809;44.872;20.642;2024-01-30T06:53:32;89.60;;;43.58;;
75939;SDS011;75809;44.872;20.642;2024-01-30T06:55:57;80.95;;;42.13;;
75939;SDS011;75809;44.872;20.642;2024-01-30T06:58:23;92.97;;;46.08;;
75939;SDS011;75809;44.872;20.642;2024-01-30T07:00:48;85.20;;;43.55;;
75939;SDS011;75809;44.872;20.642;2024-01-30T07:03:14;94.03;;;44.95;;
75939;SDS011;75809;44.872;20.642;2024-01-30T07:05:39;98.70;;;46.00;;
75939;SDS011;75809;44.872;20.642;2024-01-30T07:08:05;93.78;;;43.53;;
75939;SDS011;75809;44.872;20.642;2024-01-30T07:10:30;82.38;;;37.72;;
75939;SDS011;75809;44.872;20.642;2024-01-30T07:12:56;86.03;;;41.83;;
75939;SDS011;75809;44.872;20.642;2024-01-30T07:15:22;81.18;;;38.95;;
75939;SDS011;75809;44.872;20.642;2024-01-30T07:17:47;77.95;;;35.17;;
75939;SDS011;75809;44.872;20.642;2024-01-30T07:20:13;62.05;;;32.22;;
75939;SDS011;75809;44.872;20.642;2024-01-30T07:22:38;90.50;;;39.53;;
75939;SDS011;75809;44.872;20.642;2024-01-30T07:25:05;79.30;;;35.85;;
75939;SDS011;75809;44.872;20.642;2024-01-30T07:27:30;87.05;;;39.90;;
75939;SDS011;75809;44.872;20.642;2024-01-30T07:29:56;68.25;;;32.72;;
75939;SDS011;75809;44.872;20.642;2024-01-30T07:32:23;89.88;;;40.70;;
75939;SDS011;75809;44.872;20.642;2024-01-30T07:34:48;88.53;;;43.05;;
75939;SDS011;75809;44.872;20.642;2024-01-30T07:37:14;99.05;;;44.42;;
75939;SDS011;75809;44.872;20.642;2024-01-30T07:39:41;77.93;;;40.88;;
75939;SDS011;75809;44.872;20.642;2024-01-30T07:42:07;80.97;;;41.28;;
75939;SDS011;75809;44.872;20.642;2024-01-30T07:44:33;70.70;;;33.97;;
75939;SDS011;75809;44.872;20.642;2024-01-30T07:46:59;74.30;;;34.53;;
75939;SDS011;75809;44.872;20.642;2024-01-30T07:49:24;77.70;;;37.15;;
75939;SDS011;75809;44.872;20.642;2024-01-30T07:51:50;64.53;;;34.50;;
75939;SDS011;75809;44.872;20.642;2024-01-30T07:54:16;68.18;;;33.30;;
75939;SDS011;75809;44.872;20.642;2024-01-30T07:56:41;74.72;;;34.38;;
75939;SDS011;75809;44.872;20.642;2024-01-30T07:59:10;69.47;;;31.45;;
75939;SDS011;75809;44.872;20.642;2024-01-30T08:04:02;58.10;;;29.73;;
75939;SDS011;75809;44.872;20.642;2024-01-30T08:06:28;72.22;;;35.63;;
75939;SDS011;75809;44.872;20.642;2024-01-30T08:08:53;62.17;;;31.15;;
75939;SDS011;75809;44.872;20.642;2024-01-30T08:11:22;57.67;;;31.40;;
75939;SDS011;75809;44.872;20.642;2024-01-30T08:13:51;57.15;;;30.65;;
75939;SDS011;75809;44.872;20.642;2024-01-30T08:16:17;59.13;;;33.10;;
75939;SDS011;75809;44.872;20.642;2024-01-30T08:18:43;54.83;;;29.58;;
75939;SDS011;75809;44.872;20.642;2024-01-30T08:21:08;56.75;;;29.73;;
75939;SDS011;75809;44.872;20.642;2024-01-30T08:23:34;59.83;;;31.50;;
75939;SDS011;75809;44.872;20.642;2024-01-30T08:25:59;56.55;;;29.38;;
75939;SDS011;75809;44.872;20.642;2024-01-30T08:28:25;62.22;;;31.88;;
75939;SDS011;75809;44.872;20.642;2024-01-30T08:30:51;61.38;;;31.52;;
75939;SDS011;75809;44.872;20.642;2024-01-30T08:33:17;60.25;;;30.48;;
75939;SDS011;75809;44.872;20.642;2024-01-30T08:35:42;60.30;;;29.75;;
75939;SDS011;75809;44.872;20.642;2024-01-30T08:38:08;57.60;;;30.63;;
75939;SDS011;75809;44.872;20.642;2024-01-30T08:40:33;47.70;;;26.50;;
75939;SDS011;75809;44.872;20.642;2024-01-30T08:42:59;52.08;;;28.10;;
75939;SDS011;75809;44.872;20.642;2024-01-30T08:45:25;43.92;;;22.55;;
75939;SDS011;75809;44.872;20.642;2024-01-30T08:47:50;46.67;;;23.95;;
75939;SDS011;75809;44.872;20.642;2024-01-30T08:50:16;39.72;;;21.25;;
75939;SDS011;75809;44.872;20.642;2024-01-30T08:52:41;36.67;;;17.95;;
75939;SDS011;75809;44.872;20.642;2024-01-30T08:55:07;40.55;;;22.38;;
75939;SDS011;75809;44.872;20.642;2024-01-30T08:57:33;40.38;;;22.35;;
75939;SDS011;75809;44.872;20.642;2024-01-30T08:59:58;46.58;;;27.27;;
75939;SDS011;75809;44.872;20.642;2024-01-30T09:02:24;44.63;;;22.83;;
75939;SDS011;75809;44.872;20.642;2024-01-30T09:04:49;38.30;;;19.83;;
75939;SDS011;75809;44.872;20.642;2024-01-30T09:07:15;50.75;;;24.25;;
75939;SDS011;75809;44.872;20.642;2024-01-30T09:09:40;39.20;;;21.33;;
75939;SDS011;75809;44.872;20.642;2024-01-30T09:12:06;43.63;;;21.50;;
75939;SDS011;75809;44.872;20.642;2024-01-30T09:14:34;45.63;;;23.13;;
75939;SDS011;75809;44.872;20.642;2024-01-30T09:17:00;52.17;;;26.80;;
75939;SDS011;75809;44.872;20.642;2024-01-30T09:19:26;54.25;;;28.75;;
75939;SDS011;75809;44.872;20.642;2024-01-30T09:21:53;51.10;;;27.95;;
75939;SDS011;75809;44.872;20.642;2024-01-30T09:24:18;45.30;;;23.40;;
75939;SDS011;75809;44.872;20.642;2024-01-30T09:26:44;33.85;;;18.08;;
75939;SDS011;75809;44.872;20.642;2024-01-30T09:29:09;50.65;;;25.83;;
75939;SDS011;75809;44.872;20.642;2024-01-30T09:31:35;49.42;;;24.33;;
75939;SDS011;75809;44.872;20.642;2024-01-30T09:34:00;42.25;;;21.33;;
75939;SDS011;75809;44.872;20.642;2024-01-30T09:36:26;43.75;;;21.25;;
75939;SDS011;75809;44.872;20.642;2024-01-30T09:38:52;43.75;;;20.63;;
75939;SDS011;75809;44.872;20.642;2024-01-30T09:41:18;31.70;;;16.15;;
75939;SDS011;75809;44.872;20.642;2024-01-30T09:43:46;29.85;;;16.02;;
75939;SDS011;75809;44.872;20.642;2024-01-30T09:46:16;33.22;;;17.50;;
75939;SDS011;75809;44.872;20.642;2024-01-30T09:48:48;31.08;;;16.20;;
75939;SDS011;75809;44.872;20.642;2024-01-30T09:51:14;31.00;;;15.60;;
75939;SDS011;75809;44.872;20.642;2024-01-30T09:53:42;29.52;;;15.48;;
75939;SDS011;75809;44.872;20.642;2024-01-30T09:56:08;30.88;;;15.48;;
75939;SDS011;75809;44.872;20.642;2024-01-30T09:58:34;31.23;;;15.73;;
75939;SDS011;75809;44.872;20.642;2024-01-30T10:01:00;29.73;;;14.05;;
75939;SDS011;75809;44.872;20.642;2024-01-30T10:03:25;30.80;;;14.02;;
75939;SDS011;75809;44.872;20.642;2024-01-30T10:05:52;24.50;;;12.93;;
75939;SDS011;75809;44.872;20.642;2024-01-30T10:08:18;32.42;;;14.73;;
75939;SDS011;75809;44.872;20.642;2024-01-30T10:10:47;25.63;;;13.40;;
75939;SDS011;75809;44.872;20.642;2024-01-30T10:13:13;27.02;;;12.93;;
75939;SDS011;75809;44.872;20.642;2024-01-30T10:15:38;21.45;;;11.40;;
75939;SDS011;75809;44.872;20.642;2024-01-30T10:18:05;24.85;;;12.25;;
75939;SDS011;75809;44.872;20.642;2024-01-30T10:20:32;30.20;;;14.80;;
75939;SDS011;75809;44.872;20.642;2024-01-30T10:22:57;31.48;;;14.27;;
75939;SDS011;75809;44.872;20.642;2024-01-30T10:25:24;31.85;;;13.48;;
75939;SDS011;75809;44.872;20.642;2024-01-30T10:27:54;29.80;;;14.20;;
75939;SDS011;75809;44.872;20.642;2024-01-30T10:30:23;33.55;;;14.52;;
75939;SDS011;75809;44.872;20.642;2024-01-30T10:32:49;27.55;;;12.68;;
75939;SDS011;75809;44.872;20.642;2024-01-30T10:35:16;28.75;;;13.20;;
75939;SDS011;75809;44.872;20.642;2024-01-30T10:37:47;23.73;;;10.73;;
75939;SDS011;75809;44.872;20.642;2024-01-30T10:40:13;27.25;;;11.68;;
75939;SDS011;75809;44.872;20.642;2024-01-30T10:42:43;21.00;;;9.43;;
75939;SDS011;75809;44.872;20.642;2024-01-30T10:45:13;20.65;;;10.43;;
75939;SDS011;75809;44.872;20.642;2024-01-30T10:47:40;22.67;;;11.35;;
75939;SDS011;75809;44.872;20.642;2024-01-30T10:50:11;21.95;;;11.35;;
75939;SDS011;75809;44.872;20.642;2024-01-30T10:52:37;21.73;;;10.88;;
75939;SDS011;75809;44.872;20.642;2024-01-30T10:55:04;20.55;;;9.50;;
75939;SDS011;75809;44.872;20.642;2024-01-30T10:57:33;21.25;;;10.02;;
75939;SDS011;75809;44.872;20.642;2024-01-30T11:00:01;22.83;;;12.63;;
75939;SDS011;75809;44.872;20.642;2024-01-30T11:02:30;26.80;;;14.15;;
75939;SDS011;75809;44.872;20.642;2024-01-30T11:04:58;23.15;;;11.13;;
75939;SDS011;75809;44.872;20.642;2024-01-30T11:07:28;20.80;;;9.20;;
75939;SDS011;75809;44.872;20.642;2024-01-30T11:12:26;27.15;;;11.18;;
75939;SDS011;75809;44.872;20.642;2024-01-30T11:15:08;23.98;;;13.73;;
75939;SDS011;75809;44.872;20.642;2024-01-30T11:17:45;23.40;;;11.27;;
75939;SDS011;75809;44.872;20.642;2024-01-30T11:20:22;23.15;;;11.60;;
75939;SDS011;75809;44.872;20.642;2024-01-30T11:22:48;21.48;;;10.13;;
75939;SDS011;75809;44.872;20.642;2024-01-30T11:25:16;26.10;;;9.40;;
75939;SDS011;75809;44.872;20.642;2024-01-30T11:27:44;16.08;;;7.43;;
75939;SDS011;75809;44.872;20.642;2024-01-30T11:30:11;19.50;;;8.43;;
75939;SDS011;75809;44.872;20.642;2024-01-30T11:32:46;18.65;;;8.35;;
75939;SDS011;75809;44.872;20.642;2024-01-30T11:35:37;22.83;;;10.25;;
75939;SDS011;75809;44.872;20.642;2024-01-30T11:38:04;22.83;;;10.07;;
75939;SDS011;75809;44.872;20.642;2024-01-30T11:40:31;24.55;;;11.77;;
75939;SDS011;75809;44.872;20.642;2024-01-30T11:42:58;18.25;;;8.90;;
75939;SDS011;75809;44.872;20.642;2024-01-30T11:45:26;22.45;;;10.05;;
75939;SDS011;75809;44.872;20.642;2024-01-30T11:47:52;19.00;;;8.40;;
75939;SDS011;75809;44.872;20.642;2024-01-30T11:50:18;18.20;;;8.43;;
75939;SDS011;75809;44.872;20.642;2024-01-30T11:52:44;21.13;;;8.80;;
75939;SDS011;75809;44.872;20.642;2024-01-30T11:55:09;17.25;;;7.57;;
75939;SDS011;75809;44.872;20.642;2024-01-30T11:57:35;16.40;;;7.50;;
75939;SDS011;75809;44.872;20.642;2024-01-30T12:00:05;13.98;;;5.53;;
75939;SDS011;75809;44.872;20.642;2024-01-30T12:02:39;15.43;;;7.18;;
75939;SDS011;75809;44.872;20.642;2024-01-30T12:05:05;18.95;;;8.88;;
75939;SDS011;75809;44.872;20.642;2024-01-30T12:07:32;18.23;;;8.15;;
75939;SDS011;75809;44.872;20.642;2024-01-30T12:09:58;19.92;;;7.85;;
75939;SDS011;75809;44.872;20.642;2024-01-30T12:12:26;17.05;;;7.97;;
75939;SDS011;75809;44.872;20.642;2024-01-30T12:14:53;17.42;;;7.78;;
75939;SDS011;75809;44.872;20.642;2024-01-30T12:17:29;16.33;;;8.13;;
75939;SDS011;75809;44.872;20.642;2024-01-30T12:22:33;16.15;;;6.95;;
75939;SDS011;75809;44.872;20.642;2024-01-30T12:27:26;15.85;;;7.60;;
75939;SDS011;75809;44.872;20.642;2024-01-30T12:29:56;12.88;;;5.90;;
75939;SDS011;75809;44.872;20.642;2024-01-30T12:32:23;14.15;;;6.15;;
75939;SDS011;75809;44.872;20.642;2024-01-30T12:34:48;11.35;;;5.35;;
75939;SDS011;75809;44.872;20.642;2024-01-30T12:37:14;14.30;;;6.22;;
75939;SDS011;75809;44.872;20.642;2024-01-30T12:39:44;13.95;;;6.47;;
75939;SDS011;75809;44.872;20.642;2024-01-30T12:42:10;13.98;;;6.72;;
75939;SDS011;75809;44.872;20.642;2024-01-30T12:44:36;20.80;;;10.15;;
75939;SDS011;75809;44.872;20.642;2024-01-30T12:47:04;18.08;;;7.55;;
75939;SDS011;75809;44.872;20.642;2024-01-30T12:49:30;18.20;;;8.90;;
75939;SDS011;75809;44.872;20.642;2024-01-30T12:51:55;19.55;;;9.32;;
75939;SDS011;75809;44.872;20.642;2024-01-30T12:54:22;19.83;;;8.05;;
75939;SDS011;75809;44.872;20.642;2024-01-30T12:56:48;17.88;;;8.65;;
75939;SDS011;75809;44.872;20.642;2024-01-30T12:59:13;19.05;;;9.23;;
75939;SDS011;75809;44.872;20.642;2024-01-30T13:01:39;19.50;;;8.25;;
75939;SDS011;75809;44.872;20.642;2024-01-30T13:04:04;16.98;;;8.50;;
75939;SDS011;75809;44.872;20.642;2024-01-30T13:06:30;17.90;;;8.95;;
75939;SDS011;75809;44.872;20.642;2024-01-30T13:08:56;19.90;;;9.73;;
75939;SDS011;75809;44.872;20.642;2024-01-30T13:11:21;19.20;;;9.18;;
75939;SDS011;75809;44.872;20.642;2024-01-30T13:13:47;21.98;;;9.45;;
75939;SDS011;75809;44.872;20.642;2024-01-30T13:16:13;19.02;;;9.50;;
75939;SDS011;75809;44.872;20.642;2024-01-30T13:18:38;17.85;;;9.35;;
75939;SDS011;75809;44.872;20.642;2024-01-30T13:21:04;20.02;;;9.13;;
75939;SDS011;75809;44.872;20.642;2024-01-30T13:23:29;16.00;;;8.32;;
75939;SDS011;75809;44.872;20.642;2024-01-30T13:25:54;18.23;;;9.15;;
75939;SDS011;75809;44.872;20.642;2024-01-30T13:28:23;18.10;;;8.38;;
75939;SDS011;75809;44.872;20.642;2024-01-30T13:30:48;17.27;;;8.93;;
75939;SDS011;75809;44.872;20.642;2024-01-30T13:33:14;21.38;;;9.90;;
75939;SDS011;75809;44.872;20.642;2024-01-30T13:35:39;16.08;;;8.38;;
75939;SDS011;75809;44.872;20.642;2024-01-30T13:38:05;16.23;;;7.53;;
75939;SDS011;75809;44.872;20.642;2024-01-30T13:40:31;13.80;;;7.07;;
75939;SDS011;75809;44.872;20.642;2024-01-30T13:42:57;16.83;;;6.68;;
75939;SDS011;75809;44.872;20.642;2024-01-30T13:45:23;16.25;;;6.45;;
75939;SDS011;75809;44.872;20.642;2024-01-30T13:47:48;19.10;;;8.45;;
75939;SDS011;75809;44.872;20.642;2024-01-30T13:50:14;16.75;;;7.55;;
75939;SDS011;75809;44.872;20.642;2024-01-30T13:52:41;17.30;;;8.27;;
75939;SDS011;75809;44.872;20.642;2024-01-30T13:55:08;14.15;;;6.95;;
75939;SDS011;75809;44.872;20.642;2024-01-30T13:57:34;17.63;;;7.95;;
75939;SDS011;75809;44.872;20.642;2024-01-30T14:00:01;13.18;;;6.70;;
75939;SDS011;75809;44.872;20.642;2024-01-30T14:02:31;21.42;;;8.38;;
75939;SDS011;75809;44.872;20.642;2024-01-30T14:04:57;14.63;;;7.30;;
75939;SDS011;75809;44.872;20.642;2024-01-30T14:07:22;14.95;;;7.88;;
75939;SDS011;75809;44.872;20.642;2024-01-30T14:09:48;16.25;;;8.15;;
75939;SDS011;75809;44.872;20.642;2024-01-30T14:12:14;18.23;;;8.05;;
75939;SDS011;75809;44.872;20.642;2024-01-30T14:14:39;18.85;;;10.10;;
75939;SDS011;75809;44.872;20.642;2024-01-30T14:17:05;18.05;;;8.70;;